createdAt,value
2023-03-29T00:00:24.803Z,76659.63
2023-03-29T00:01:57.695Z,76663.59
2023-03-29T00:03:31.332Z,76663.59
2023-03-29T00:05:05.211Z,76671.50
2023-03-29T00:06:39.143Z,76675.44
2023-03-29T00:08:14.970Z,76681.38
2023-03-29T00:09:48.302Z,76691.25
2023-03-29T00:11:22.685Z,76683.34
2023-03-29T00:12:55.685Z,76756.53
2023-03-29T00:14:31.184Z,76687.31
2023-03-29T00:16:04.324Z,76695.22
2023-03-29T00:17:37.432Z,76709.06
2023-03-29T00:19:10.645Z,76695.22
2023-03-29T00:20:43.493Z,76693.25
2023-03-29T00:22:16.791Z,76695.22
2023-03-29T00:23:50.008Z,76703.13
2023-03-29T00:25:23.222Z,76703.13
2023-03-29T00:26:57.400Z,76707.09
2023-03-29T00:28:31.762Z,76703.13
2023-03-29T00:30:06.995Z,76786.19
2023-03-29T00:31:40.341Z,76707.09
2023-03-29T00:33:14.863Z,76707.09
2023-03-29T00:34:51.194Z,76707.09
2023-03-29T00:36:24.173Z,76705.09
2023-03-29T00:37:58.096Z,76707.09
2023-03-29T00:39:31.475Z,76713.03
2023-03-29T00:41:06.872Z,76750.59
2023-03-29T00:42:39.911Z,76715.00
2023-03-29T00:44:50.042Z,76705.09
2023-03-29T00:46:24.396Z,76713.03
2023-03-29T00:48:02.903Z,76703.13
2023-03-29T00:49:36.206Z,76711.03
2023-03-29T00:51:11.494Z,76695.22
2023-03-29T00:52:55.529Z,76703.13
2023-03-29T00:54:28.817Z,76709.06
2023-03-29T00:56:12.611Z,76695.22
2023-03-29T00:57:47.026Z,76709.06
2023-03-29T00:59:24.380Z,76699.19
2023-03-29T01:01:09.201Z,76695.22
2023-03-29T01:02:43.957Z,76693.25
2023-03-29T01:04:55.589Z,76691.25
2023-03-29T01:06:29.901Z,76742.69
2023-03-29T01:08:08.610Z,76705.09
2023-03-29T01:09:46.148Z,76693.25
2023-03-29T01:11:20.817Z,76703.13
2023-03-29T01:13:04.698Z,76703.13
2023-03-29T01:14:50.836Z,76703.13
2023-03-29T01:16:27.015Z,76711.03
2023-03-29T01:18:02.253Z,76716.97
2023-03-29T01:19:43.480Z,76720.94
2023-03-29T01:21:32.676Z,76722.91
2023-03-29T01:23:27.283Z,76732.78
2023-03-29T01:25:22.672Z,76722.91
2023-03-29T01:27:17.680Z,76726.84
2023-03-29T01:28:57.996Z,76726.84
2023-03-29T01:30:50.284Z,76730.81
2023-03-29T01:32:39.234Z,76738.72
2023-03-29T01:34:35.595Z,76746.63
2023-03-29T01:36:37.447Z,76756.53
2023-03-29T01:38:14.908Z,76786.19
2023-03-29T01:39:47.935Z,76768.38
2023-03-29T01:41:20.910Z,76780.25
2023-03-29T01:43:14.023Z,76778.28
2023-03-29T01:44:50.473Z,76786.19
2023-03-29T01:46:35.805Z,76796.06
2023-03-29T01:48:21.826Z,76798.03
2023-03-29T01:50:09.543Z,76796.06
2023-03-29T01:51:54.031Z,76800.03
2023-03-29T01:53:46.287Z,76798.03
2023-03-29T01:55:25.281Z,76802.00
2023-03-29T01:57:00.198Z,76809.91
2023-03-29T01:58:38.607Z,76809.91
2023-03-29T02:00:21.733Z,76807.94
2023-03-29T02:01:57.860Z,76809.91
2023-03-29T02:03:34.974Z,76817.81
2023-03-29T02:05:10.846Z,76827.72
2023-03-29T02:06:45.444Z,76825.72
2023-03-29T02:08:21.793Z,76821.78
2023-03-29T02:09:55.497Z,76825.72
2023-03-29T02:11:29.686Z,76823.75
2023-03-29T02:13:03.365Z,76833.66
2023-03-29T02:14:39.394Z,76833.66
2023-03-29T02:16:14.092Z,76837.59
2023-03-29T02:17:49.642Z,76839.56
2023-03-29T02:19:25.535Z,76821.78
2023-03-29T02:20:59.860Z,76825.72
2023-03-29T02:22:39.751Z,76821.78
2023-03-29T02:24:15.727Z,76825.72
2023-03-29T02:25:51.248Z,76829.69
2023-03-29T02:27:24.338Z,76825.72
2023-03-29T02:28:57.176Z,76813.88
2023-03-29T02:30:39.315Z,76819.81
2023-03-29T02:32:41.939Z,76809.91
2023-03-29T02:35:04.811Z,76805.97
2023-03-29T02:36:50.931Z,76803.97
2023-03-29T02:38:25.979Z,76809.91
2023-03-29T02:40:00.932Z,76786.19
2023-03-29T02:41:36.511Z,76792.13
2023-03-29T02:43:13.214Z,76770.38
2023-03-29T02:44:47.979Z,76746.63
2023-03-29T02:46:21.303Z,76709.06
2023-03-29T02:47:58.882Z,76675.44
2023-03-29T02:49:32.012Z,76659.63
2023-03-29T02:51:13.500Z,76639.84
2023-03-29T02:53:11.924Z,76592.41
2023-03-29T02:54:50.638Z,76598.31
2023-03-29T02:56:23.917Z,76631.94
2023-03-29T02:57:56.787Z,76651.72
2023-03-29T02:59:33.673Z,76616.13
2023-03-29T03:01:08.137Z,76643.81
2023-03-29T03:02:42.253Z,76624.03
2023-03-29T03:04:23.013Z,76643.81
2023-03-29T03:05:56.297Z,76639.84
2023-03-29T03:07:29.206Z,76620.06
2023-03-29T03:09:02.501Z,76620.06
2023-03-29T03:10:39.239Z,76596.34
2023-03-29T03:12:12.671Z,76586.47
2023-03-29T03:13:45.636Z,76588.44
2023-03-29T03:15:19.296Z,76671.50
2023-03-29T03:16:53.106Z,76596.34
2023-03-29T03:18:26.170Z,76564.72
2023-03-29T03:19:59.586Z,76564.72
2023-03-29T03:21:38.283Z,76548.88
2023-03-29T03:23:11.146Z,76552.84
2023-03-29T03:24:44.194Z,76519.22
2023-03-29T03:26:18.516Z,76550.88
2023-03-29T03:27:51.854Z,76517.25
2023-03-29T03:29:28.730Z,76517.25
2023-03-29T03:31:01.780Z,76501.44
2023-03-29T03:32:55.419Z,76540.97
2023-03-29T03:34:54.574Z,76489.56
2023-03-29T03:36:31.855Z,76452.00
2023-03-29T03:38:06.287Z,76453.97
2023-03-29T03:39:39.227Z,76457.94
2023-03-29T03:41:15.292Z,76414.44
2023-03-29T03:42:47.895Z,76388.72
2023-03-29T03:44:21.886Z,76394.66
2023-03-29T03:46:13.249Z,76402.56
2023-03-29T03:47:46.376Z,76384.78
2023-03-29T03:49:44.255Z,76353.13
2023-03-29T03:51:17.931Z,76276.03
2023-03-29T03:52:50.988Z,76291.84
2023-03-29T03:54:24.570Z,76293.81
2023-03-29T03:56:20.823Z,76250.31
2023-03-29T03:58:02.633Z,76236.47
2023-03-29T03:59:36.260Z,76185.06
2023-03-29T04:01:14.039Z,76256.25
2023-03-29T04:02:56.932Z,76246.38
2023-03-29T04:04:31.116Z,76303.69
2023-03-29T04:06:10.431Z,76311.63
2023-03-29T04:08:01.993Z,76272.06
2023-03-29T04:09:57.486Z,76327.44
2023-03-29T04:12:02.848Z,76347.19
2023-03-29T04:13:36.551Z,76394.66
2023-03-29T04:15:38.908Z,76232.53
2023-03-29T04:17:18.128Z,76204.84
2023-03-29T04:18:57.901Z,76260.22
2023-03-29T04:20:34.821Z,76135.63
2023-03-29T04:22:08.449Z,76115.88
2023-03-29T04:23:43.432Z,76098.06
2023-03-29T04:25:17.220Z,76011.09
2023-03-29T04:26:53.093Z,75965.59
2023-03-29T04:28:29.967Z,76034.81
2023-03-29T04:30:17.320Z,75922.13
2023-03-29T04:32:09.188Z,76011.09
2023-03-29T04:34:14.246Z,76058.53
2023-03-29T04:35:51.613Z,76102.03
2023-03-29T04:37:33.603Z,76048.66
2023-03-29T04:39:08.111Z,76019.00
2023-03-29T04:40:42.663Z,76161.34
2023-03-29T04:42:47.839Z,76026.91
2023-03-29T04:44:21.627Z,76056.56
2023-03-29T04:45:55.519Z,76022.94
2023-03-29T04:48:01.529Z,75935.94
2023-03-29T04:49:34.464Z,75894.44
2023-03-29T04:51:07.362Z,75916.19
2023-03-29T04:52:41.142Z,75920.13
2023-03-29T04:54:14.893Z,75902.34
2023-03-29T04:56:07.006Z,75969.56
2023-03-29T04:58:21.560Z,75975.50
2023-03-29T04:59:56.180Z,75965.59
2023-03-29T05:01:52.204Z,75846.97
2023-03-29T05:03:26.398Z,75848.97
2023-03-29T05:05:05.515Z,75841.06
2023-03-29T05:06:38.891Z,75839.06
2023-03-29T05:08:13.628Z,75904.31
2023-03-29T05:10:05.565Z,75920.13
2023-03-29T05:11:38.848Z,75791.63
2023-03-29T05:13:11.967Z,75738.25
2023-03-29T05:14:46.126Z,75827.22
2023-03-29T05:16:19.550Z,75718.47
2023-03-29T05:17:53.938Z,75777.78
2023-03-29T05:19:28.171Z,75702.66
2023-03-29T05:21:01.561Z,75623.59
2023-03-29T05:22:34.765Z,75542.53
2023-03-29T05:24:07.930Z,75702.66
2023-03-29T05:25:57.473Z,75674.97
2023-03-29T05:27:31.087Z,75722.44
2023-03-29T05:29:09.433Z,75686.84
2023-03-29T05:30:43.545Z,75676.97
2023-03-29T05:32:26.536Z,75651.25
2023-03-29T05:34:00.162Z,75734.28
2023-03-29T05:35:36.415Z,75639.41
2023-03-29T05:37:13.697Z,75724.41
2023-03-29T05:38:55.300Z,75722.44
2023-03-29T05:40:29.876Z,75744.19
2023-03-29T05:42:32.346Z,75758.03
2023-03-29T05:44:13.142Z,75740.22
2023-03-29T05:45:48.947Z,75633.47
2023-03-29T05:47:21.974Z,75584.06
2023-03-29T05:48:54.964Z,75726.38
2023-03-29T05:50:33.573Z,75779.75
2023-03-29T05:52:07.004Z,75773.84
2023-03-29T05:53:41.577Z,75767.91
2023-03-29T05:55:19.183Z,75706.63
2023-03-29T05:56:52.586Z,75653.25
2023-03-29T05:58:26.999Z,75570.22
2023-03-29T05:59:59.929Z,75520.78
2023-03-29T06:01:32.812Z,75467.41
2023-03-29T06:03:21.243Z,75593.94
2023-03-29T06:04:55.707Z,75627.53
2023-03-29T06:06:28.739Z,75673.00
2023-03-29T06:08:02.524Z,75611.72
2023-03-29T06:10:03.114Z,75710.56
2023-03-29T06:11:35.965Z,75676.97
2023-03-29T06:13:25.562Z,75714.53
2023-03-29T06:15:03.764Z,75785.69
2023-03-29T06:16:57.101Z,75793.59
2023-03-29T06:18:30.739Z,75761.97
2023-03-29T06:20:08.700Z,75710.56
2023-03-29T06:21:42.178Z,75659.16
